地図

経路データ

SID SEASON NUMBER BASIN SUBBASIN NAME ISO_TIME NATURE LAT LON WMO_WIND WMO_PRES WMO_AGENCY TRACK_TYPE DIST2LAND LANDFALL IFLAG USA_AGENCY USA_ATCF_ID USA_LAT USA_LON USA_RECORD USA_STATUS USA_WIND USA_PRES USA_SSHS USA_R34_NE USA_R34_SE USA_R34_SW USA_R34_NW USA_R50_NE USA_R50_SE USA_R50_SW USA_R50_NW USA_R64_NE USA_R64_SE USA_R64_SW USA_R64_NW USA_POCI USA_ROCI USA_RMW USA_EYE TOKYO_LAT TOKYO_LON TOKYO_GRADE TOKYO_WIND TOKYO_PRES TOKYO_R50_DIR TOKYO_R50_LONG TOKYO_R50_SHORT TOKYO_R30_DIR TOKYO_R30_LONG TOKYO_R30_SHORT TOKYO_LAND CMA_LAT CMA_LON CMA_CAT CMA_WIND CMA_PRES HKO_LAT HKO_LON HKO_CAT HKO_WIND HKO_PRES NEWDELHI_LAT NEWDELHI_LON NEWDELHI_GRADE NEWDELHI_WIND NEWDELHI_PRES NEWDELHI_CI NEWDELHI_DP NEWDELHI_POCI REUNION_LAT REUNION_LON REUNION_TYPE REUNION_WIND REUNION_PRES REUNION_TNUM REUNION_CI REUNION_RMW REUNION_R34_NE REUNION_R34_SE REUNION_R34_SW REUNION_R34_NW REUNION_R50_NE REUNION_R50_SE REUNION_R50_SW REUNION_R50_NW REUNION_R64_NE REUNION_R64_SE REUNION_R64_SW REUNION_R64_NW BOM_LAT BOM_LON BOM_TYPE BOM_WIND BOM_PRES BOM_TNUM BOM_CI BOM_RMW BOM_R34_NE BOM_R34_SE BOM_R34_SW BOM_R34_NW BOM_R50_NE BOM_R50_SE BOM_R50_SW BOM_R50_NW BOM_R64_NE BOM_R64_SE BOM_R64_SW BOM_R64_NW BOM_ROCI BOM_POCI BOM_EYE BOM_POS_METHOD BOM_PRES_METHOD NADI_LAT NADI_LON NADI_CAT NADI_WIND NADI_PRES WELLINGTON_LAT WELLINGTON_LON WELLINGTON_WIND WELLINGTON_PRES DS824_LAT DS824_LON DS824_STAGE DS824_WIND DS824_PRES TD9636_LAT TD9636_LON TD9636_STAGE TD9636_WIND TD9636_PRES TD9635_LAT TD9635_LON TD9635_WIND TD9635_PRES TD9635_ROCI NEUMANN_LAT NEUMANN_LON NEUMANN_CLASS NEUMANN_WIND NEUMANN_PRES MLC_LAT MLC_LON MLC_CLASS MLC_WIND MLC_PRES USA_GUST BOM_GUST BOM_GUST_PER REUNION_GUST REUNION_GUST_PER USA_SEAHGT USA_SEARAD_NE USA_SEARAD_SE USA_SEARAD_SW USA_SEARAD_NW STORM_SPEED STORM_DIR
1975241N33314 1975 82 NA NA DORIS 1975-08-28 12:00:00 SS 33.3000 -46.3000 35 1005 hurdat_atl main 1590 1562 O_____________ hurdat_atl AL081975 33.3000 -46.3000 SS 35 1005 -2 11 278
1975241N33314 1975 82 NA NA DORIS 1975-08-28 15:00:00 SS 33.3735 -46.9554 main 1559 1524 P_____________ AL081975 33.3735 -46.9554 SS 37 1005 -2 10 287
1975241N33314 1975 82 NA NA DORIS 1975-08-28 18:00:00 SS 33.6000 -47.5000 40 1005 hurdat_atl main 1524 1473 O_____________ hurdat_atl AL081975 33.6000 -47.5000 SS 40 1005 -2 10 312
1975241N33314 1975 82 NA NA DORIS 1975-08-28 21:00:00 SS 34.0571 -47.8596 main 1460 1412 P_____________ AL081975 34.0571 -47.8596 SS 40 1005 -2 10 331
1975241N33314 1975 82 NA NA DORIS 1975-08-29 00:00:00 SS 34.5000 -48.1000 40 1005 hurdat_atl main 1412 1396 O_____________ hurdat_atl AL081975 34.5000 -48.1000 SS 40 1005 -2 7 328
1975241N33314 1975 82 NA NA DORIS 1975-08-29 03:00:00 SS 34.6524 -48.3156 main 1386 1381 P_____________ AL081975 34.6524 -48.3156 SS 42 1005 -2 4 301
1975241N33314 1975 82 NA NA DORIS 1975-08-29 06:00:00 SS 34.7000 -48.5000 45 1005 hurdat_atl main 1381 1365 O_____________ hurdat_atl AL081975 34.7000 -48.5000 SS 45 1005 -2 4 293
1975241N33314 1975 82 NA NA DORIS 1975-08-29 09:00:00 SS 34.7925 -48.7150 main 1365 1350 P_____________ AL081975 34.7925 -48.7150 SS 45 1005 -2 4 301
1975241N33314 1975 82 NA NA DORIS 1975-08-29 12:00:00 TS 34.9000 -48.9000 45 1005 hurdat_atl main 1350 1337 O_____________ hurdat_atl AL081975 34.9000 -48.9000 TS 45 1005 0 4 314
1975241N33314 1975 82 NA NA DORIS 1975-08-29 15:00:00 TS 35.0575 -49.0449 main 1326 1313 P_____________ AL081975 35.0575 -49.0449 TS 47 1002 0 3 332
1975241N33314 1975 82 NA NA DORIS 1975-08-29 18:00:00 TS 35.2000 -49.1000 50 1000 hurdat_atl main 1313 1302 O_____________ hurdat_atl AL081975 35.2000 -49.1000 TS 50 1000 0 2 353
1975241N33314 1975 82 NA NA DORIS 1975-08-29 21:00:00 TS 35.2725 -49.0451 main 1304 1304 P_____________ AL081975 35.2725 -49.0451 TS 52 998 0 2 58
1975241N33314 1975 82 NA NA DORIS 1975-08-30 00:00:00 TS 35.3000 -48.9000 55 997 hurdat_atl main 1307 1307 O_____________ hurdat_atl AL081975 35.3000 -48.9000 TS 55 997 0 3 82
1975241N33314 1975 82 NA NA DORIS 1975-08-30 03:00:00 TS 35.3075 -48.7225 main 1311 1311 P_____________ AL081975 35.3075 -48.7225 TS 55 997 0 3 90
1975241N33314 1975 82 NA NA DORIS 1975-08-30 06:00:00 TS 35.3000 -48.5000 55 997 hurdat_atl main 1316 1316 O_____________ hurdat_atl AL081975 35.3000 -48.5000 TS 55 997 0 4 88
1975241N33314 1975 82 NA NA DORIS 1975-08-30 09:00:00 TS 35.3222 -48.2878 main 1321 1321 P_____________ AL081975 35.3222 -48.2878 TS 55 997 0 4 90
1975241N33314 1975 82 NA NA DORIS 1975-08-30 12:00:00 TS 35.3000 -48.0000 55 997 hurdat_atl main 1329 1329 O_____________ hurdat_atl AL081975 35.3000 -48.0000 TS 55 997 0 6 106
1975241N33314 1975 82 NA NA DORIS 1975-08-30 15:00:00 TS 35.1577 -47.5720 main 1351 1351 P_____________ AL081975 35.1577 -47.5720 TS 55 997 0 8 112
1975241N33314 1975 82 NA NA DORIS 1975-08-30 18:00:00 TS 35.0000 -47.1000 55 997 hurdat_atl main 1387 1387 O_____________ hurdat_atl AL081975 35.0000 -47.1000 TS 55 997 0 8 107
1975241N33314 1975 82 NA NA DORIS 1975-08-30 21:00:00 TS 34.9349 -46.6778 main 1410 1410 P_____________ AL081975 34.9349 -46.6778 TS 60 993 0 7 99
1975241N33314 1975 82 NA NA DORIS 1975-08-31 00:00:00 TS 34.9000 -46.3000 65 990 hurdat_atl main 1423 1423 O_____________ hurdat_atl AL081975 34.9000 -46.3000 HU 65 990 1 6 98
1975241N33314 1975 82 NA NA DORIS 1975-08-31 03:00:00 TS 34.8499 -45.9776 main 1444 1444 P_____________ AL081975 34.8499 -45.9776 HU 65 990 1 5 101
1975241N33314 1975 82 NA NA DORIS 1975-08-31 06:00:00 TS 34.8000 -45.7000 65 990 hurdat_atl main 1454 1454 O_____________ hurdat_atl AL081975 34.8000 -45.7000 HU 65 990 1 5 103
1975241N33314 1975 82 NA NA DORIS 1975-08-31 09:00:00 TS 34.7500 -45.4275 main 1475 1475 P_____________ AL081975 34.7500 -45.4275 HU 67 990 1 4 104
1975241N33314 1975 82 NA NA DORIS 1975-08-31 12:00:00 TS 34.7000 -45.2000 70 990 hurdat_atl main 1483 1483 O_____________ hurdat_atl AL081975 34.7000 -45.2000 HU 70 990 1 3 107
1975241N33314 1975 82 NA NA DORIS 1975-08-31 15:00:00 TS 34.6499 -45.0350 main 1501 1501 P_____________ AL081975 34.6499 -45.0350 HU 70 990 1 3 112
1975241N33314 1975 82 NA NA DORIS 1975-08-31 18:00:00 TS 34.6000 -44.9000 70 990 hurdat_atl main 1504 1504 O_____________ hurdat_atl AL081975 34.6000 -44.9000 HU 70 990 1 3 117
1975241N33314 1975 82 NA NA DORIS 1975-08-31 21:00:00 TS 34.5350 -44.7574 main 1518 1518 P_____________ AL081975 34.5350 -44.7574 HU 72 987 1 3 112
1975241N33314 1975 82 NA NA DORIS 1975-09-01 00:00:00 TS 34.5000 -44.6000 75 984 hurdat_atl main 1526 1526 O_____________ hurdat_atl AL081975 34.5000 -44.6000 HU 75 984 1 3 93
1975241N33314 1975 82 NA NA DORIS 1975-09-01 03:00:00 TS 34.5201 -44.3925 main 1534 1528 P_____________ AL081975 34.5201 -44.3925 HU 75 984 1 3 73
1975241N33314 1975 82 NA NA DORIS 1975-09-01 06:00:00 TS 34.6000 -44.2000 75 984 hurdat_atl main 1532 1526 O_____________ hurdat_atl AL081975 34.6000 -44.2000 HU 75 984 1 3 53
1975241N33314 1975 82 NA NA DORIS 1975-09-01 09:00:00 TS 34.7200 -44.0700 main 1526 1511 P_____________ AL081975 34.7200 -44.0700 HU 75 984 1 3 28
1975241N33314 1975 82 NA NA DORIS 1975-09-01 12:00:00 TS 34.9000 -44.0000 75 984 hurdat_atl main 1511 1491 O_____________ hurdat_atl AL081975 34.9000 -44.0000 HU 75 984 1 4 13
1975241N33314 1975 82 NA NA DORIS 1975-09-01 15:00:00 TS 35.1424 -43.9551 main 1491 1462 P_____________ AL081975 35.1424 -43.9551 HU 75 984 1 5 2
1975241N33314 1975 82 NA NA DORIS 1975-09-01 18:00:00 TS 35.4000 -44.0000 75 984 hurdat_atl main 1462 1434 O_____________ hurdat_atl AL081975 35.4000 -44.0000 HU 75 984 1 5 337
1975241N33314 1975 82 NA NA DORIS 1975-09-01 21:00:00 TS 35.5926 -44.1923 main 1434 1405 P_____________ AL081975 35.5926 -44.1923 HU 82 977 1 5 321
1975241N33314 1975 82 NA NA DORIS 1975-09-02 00:00:00 TS 35.8000 -44.4000 90 970 hurdat_atl main 1405 1372 O_____________ hurdat_atl AL081975 35.8000 -44.4000 HU 90 970 2 6 334
1975241N33314 1975 82 NA NA DORIS 1975-09-02 03:00:00 TS 36.0849 -44.4949 main 1372 1343 P_____________ AL081975 36.0849 -44.4949 HU 92 967 2 6 352
1975241N33314 1975 82 NA NA DORIS 1975-09-02 06:00:00 TS 36.4000 -44.5000 95 965 hurdat_atl main 1343 1318 O_____________ hurdat_atl AL081975 36.4000 -44.5000 HU 95 965 2 6 7
1975241N33314 1975 82 NA NA DORIS 1975-09-02 09:00:00 TS 36.6925 -44.4152 main 1318 1294 P_____________ AL081975 36.6925 -44.4152 HU 95 965 2 6 15
1975241N33314 1975 82 NA NA DORIS 1975-09-02 12:00:00 TS 37.0000 -44.3000 95 965 hurdat_atl main 1294 1266 O_____________ hurdat_atl AL081975 37.0000 -44.3000 HU 95 965 2 7 10
1975241N33314 1975 82 NA NA DORIS 1975-09-02 15:00:00 TS 37.3424 -44.2646 main 1266 1233 P_____________ AL081975 37.3424 -44.2646 HU 95 965 2 7 6
1975241N33314 1975 82 NA NA DORIS 1975-09-02 18:00:00 TS 37.7000 -44.2000 95 965 hurdat_atl main 1233 1216 O_____________ hurdat_atl AL081975 37.7000 -44.2000 HU 95 965 2 7 17
1975241N33314 1975 82 NA NA DORIS 1975-09-02 21:00:00 TS 38.0051 -44.0076 main 1216 1190 P_____________ AL081975 38.0051 -44.0076 HU 95 965 2 8 24
1975241N33314 1975 82 NA NA DORIS 1975-09-03 00:00:00 TS 38.4000 -43.8000 95 965 hurdat_atl main 1190 1143 O_____________ hurdat_atl AL081975 38.4000 -43.8000 HU 95 965 2 10 13
1975241N33314 1975 82 NA NA DORIS 1975-09-03 03:00:00 TS 38.9973 -43.7138 main 1143 1089 P_____________ AL081975 38.9973 -43.7138 HU 95 965 2 13 7
1975241N33314 1975 82 NA NA DORIS 1975-09-03 06:00:00 TS 39.7000 -43.6000 95 965 hurdat_atl main 1089 1045 O_____________ hurdat_atl AL081975 39.7000 -43.6000 HU 95 965 2 15 12
1975241N33314 1975 82 NA NA DORIS 1975-09-03 09:00:00 TS 40.4301 -43.3236 main 1051 1017 P_____________ AL081975 40.4301 -43.3236 HU 95 965 2 15 18
1975241N33314 1975 82 NA NA DORIS 1975-09-03 12:00:00 TS 41.1000 -43.0000 95 965 hurdat_atl main 1017 993 O_____________ hurdat_atl AL081975 41.1000 -43.0000 HU 95 965 2 12 21
1975241N33314 1975 82 NA NA DORIS 1975-09-03 15:00:00 TS 41.5949 -42.7416 main 1000 986 P_____________ AL081975 41.5949 -42.7416 HU 92 967 2 10 22
1975241N33314 1975 82 NA NA DORIS 1975-09-03 18:00:00 TS 42.0000 -42.5000 90 970 hurdat_atl main 986 973 O_____________ hurdat_atl AL081975 42.0000 -42.5000 HU 90 970 2 9 23
1975241N33314 1975 82 NA NA DORIS 1975-09-03 21:00:00 TS 42.4374 -42.2574 main 974 968 P_____________ AL081975 42.4374 -42.2574 HU 75 982 1 9 25
1975241N33314 1975 82 NA NA DORIS 1975-09-04 00:00:00 TS 42.8000 -42.0000 60 995 hurdat_atl main 970 970 O_____________ hurdat_atl AL081975 42.8000 -42.0000 TS 60 995 0 7 34
1975241N33314 1975 82 NA NA DORIS 1975-09-04 03:00:00 TS 43.0374 -41.7146 main 980 975 P_____________ AL081975 43.0374 -41.7146 TS 52 1000 0 6 48
1975241N33314 1975 82 NA NA DORIS 1975-09-04 06:00:00 ET 43.2000 -41.4000 45 1005 hurdat_atl main 991 991 O_____________ hurdat_atl AL081975 43.2000 -41.4000 EX 45 1005 -4 6 57
1975241N33314 1975 82 NA NA DORIS 1975-09-04 09:00:00 ET 43.3502 -41.0580 main 1001 1001 P_____________ AL081975 43.3502 -41.0580 EX 45 1005 -4 6 59
1975241N33314 1975 82 NA NA DORIS 1975-09-04 12:00:00 ET 43.5000 -40.7000 45 1005 hurdat_atl main 1023 O_____________ hurdat_atl AL081975 43.5000 -40.7000 EX 45 1005 -4 6 60

IBTrACS Databaseについて

本データベースは、米国NOAAが公開する1842年以降の世界の熱帯低気圧のベストトラックデータアーカイブInternational Best Track Archive for Climate Stewardship (IBTrACS)を、ウェブで閲覧しやすい形式に変換したものです。

最終更新日:2021-12-03